Thursday, May 24, 2018, 1:56 PM EDT
Back to Local

KPSM, Pease Air Force Base / Portsmouth

Location: Portsmouth, NH, United States Lat: 43.083
Local Time: 1:56 PM EDT (17:56 GMT) Lon: -70.817
Time Zone: US/Eastern Elev: 101 ft

Show me the last for .
Show Decoded

2018-05-24 12:56 METAR KPSM 241656Z 13011KT 10SM FEW020 SCT200 16/10 A3010 RMK AO2A SLP195
                 T01590104 =
2018-05-24 11:56 METAR KPSM 241556Z 12010KT 10SM SCT015 BKN200 16/11 A3011 RMK AO2A SLP198
                 T01560108 =
2018-05-24 10:56 METAR KPSM 241456Z 10011KT 10SM SCT015 BKN250 15/11 A3011 RMK AO2A SLP199
                 T01500108 52008 =
2018-05-24 09:56 METAR KPSM 241356Z 11009KT 10SM SCT016 BKN090 BKN250 14/10 A3010 RMK AO2A SLP195
                 T01370101 =
2018-05-24 08:56 METAR KPSM 241256Z 12007KT 10SM SCT016 BKN110 BKN250 15/10 A3010 RMK AO2A SLP195
                 T01460100 =
2018-05-24 08:30 METAR KPSM 241230Z VRB04KT 10SM BKN015 BKN250 14/10 A3010 RMK AO2A =
2018-05-24 07:56 METAR KPSM 241156Z 07005KT 10SM SCT015 BKN250 14/10 A3009 RMK AO2A SLP191
                 T01380102 10139 20089 52019 =
2018-05-24 06:56 METAR KPSM 241056Z 09003KT 10SM FEW075 FEW200 12/11 A3006 RMK AO2A SLP181
                 T01200112 =
2018-05-24 05:56 METAR KPSM 240956Z 00000KT 10SM FEW041 FEW075 SCT200 09/09 A3004 RMK AO2A SLP174
                 T00910089 =
2018-05-24 04:56 METAR KPSM 240856Z 35003KT 10SM FEW070 SCT250 09/09 A3003 RMK AO2A SLP171
                 T00940091 53012 =
2018-05-24 03:56 METAR KPSM 240756Z 00000KT 10SM FEW075 SCT250 11/10 A3001 RMK AO2A SLP164
                 T01060095 =
2018-05-24 02:56 METAR KPSM 240656Z 00000KT 10SM FEW075 SCT250 11/10 A3000 RMK AO2A SLP161
                 T01070098 =
2018-05-24 01:56 METAR KPSM 240556Z 00000KT 10SM FEW075 BKN200 12/10 A3000 RMK AO2A SLP161
                 T01210102 10241 20119 50009 =
2018-05-24 00:56 METAR KPSM 240456Z 04004KT 10SM FEW075 SCT200 13/11 A3000 RMK AO2A SLP161
                 T01270106 402880119 =
2018-05-23 23:56 METAR KPSM 240356Z 01003KT 10SM FEW075 FEW095 SCT200 13/11 A2999 RMK AO2A SLP158
                 T01320109 =
2018-05-23 22:56 METAR KPSM 240256Z 07005KT 10SM FEW095 BKN250 14/11 A2997 RMK AO2A SLP151
                 T01370109 51032 =
2018-05-23 21:56 METAR KPSM 240156Z 06008KT 10SM FEW095 BKN250 16/11 A2996 RMK AO2A SLP147
                 T01580110 =
2018-05-23 20:56 METAR KPSM 240056Z 06013G19KT 10SM FEW090 SCT110 BKN250 20/11 A2993 RMK AO2A
                 PRESRR SLP137 T02010108 =
2018-05-23 19:56 METAR KPSM 232356Z 34011G16KT 10SM FEW040 BKN095 BKN250 24/06 A2987 RMK AO2A
                 SLP117 T02420064 10288 20242 52030 =
2018-05-23 18:56 METAR KPSM 232256Z 34013G23KT 10SM FEW040 SCT100 BKN250 26/06 A2983 RMK AO2A
                 SLP103 T02550056 =
2018-05-23 17:56 METAR KPSM 232156Z 32013KT 10SM SCT100 26/07 A2980 RMK AO2A SLP093 T02640069 =
2018-05-23 16:56 METAR KPSM 232056Z 31014G19KT 10SM SCT090 28/08 A2979 RMK AO2A SLP090 T02830080
                 57005 =
2018-05-23 15:56 METAR KPSM 231956Z 28013KT 10SM SCT080 28/08 A2979 RMK AO2A SLP090 T02790082 =
2018-05-23 14:56 METAR KPSM 231856Z 31009KT 10SM SCT060 27/08 A2979 RMK AO2A SLP090 T02740083 =

Support USWX by starting your Amazon purchase here.